Depoe Bay, OR (97341)

4:35 PM PDT on April 21, 2015 (GMT -0700)
Willark Park | | Change Station
CLOSE
Current Station
Personal Weather Station
Location: Depoe Bay, OR
Elevation: 72 ft
Nearby Weather Stations

Elev 72 ft 44.85 °N, 124.05 °W | Updated 29 seconds ago

Overcast
Overcast
50.0 °F
Feels Like 46 °F
N
10.5
Wind Variable Wind from ESE
Gusts 12.8 mph

Today
High -- | Low -- °F
--% Chance of Precip.
Yesterday
High -- | Low -- °F
Precip. -- in
6:21 AM 8:08 PM
Waxing Crescent, 13% visible
Pressure 30.14 in
Visibility 7.0 miles
Clouds Scattered Clouds 1500 ft
Scattered Clouds 2200 ft
Scattered Clouds 3000 ft
Windchill 46 °F
Dew Point 47 °F
Humidity 88%
Rainfall 0.00 in
Snow Depth Not available.
UV 4 out of 12
Pollen 10.10 out of 12
Air Quality Not available.
Flu Activity Regional
METAR KONP 212315Z AUTO 36010G19KT 7SM SCT015 SCT022 SCT030 10/08 A3014 RMK AO2

More Conditions Fewer Conditions

Pressure 30.14 in
Visibility 7.0 miles
Clouds Scattered Clouds 1500 ft
Scattered Clouds 2200 ft
Scattered Clouds 3000 ft
Windchill 46 °F
Dew Point 47 °F
Humidity 88%
Rainfall 0.00 in
Snow Depth Not available.
UV 4 out of 12
Pollen 10.10 out of 12
Air Quality Not available.
Flu Activity Regional
METAR KONP 212315Z AUTO 36010G19KT 7SM SCT015 SCT022 SCT030 10/08 A3014 RMK AO2

More Conditions Fewer Conditions

10-Day Weather Forecast

Almanac

Astronomy

Apr. 21, 2015 Rise Set
Actual Time
Civil Twilight
Nautical Twilight
Astronomical Twilight
Moon
Length of Visible Light
Length of Day
Tomorrow will be .
, % of the Moon is Illuminated

Today's Extremes

State Highs State Lows

Community

WunderPhotos

Upload Photos

1,815,579 photos uploaded!

WunderBlogs® & News

Nearby

Air Quality

  Air Quality AQ Index Pollutant
Not available.

Snow Depth

Station Depth Elevation

Earthquake Activity

City Distance Mag. Time & Date
Minimum magnitude displayed is 2.5.

Coastal Water Temperatures

Place Temperature

Stations

Nearby Weather Stations

Station Location Temp. Windchill Dew Point Humidity Wind Precip. Elev Updated Type